Time;durP1;ratioP1;P1;durP2;ratioP2;P2;SDS_P1;SDS_P2;PMS_P1;PMS_P2;Temp;Humidity;BMP_temperature;BMP_pressure;BME280_temperature;BME280_humidity;BME280_pressure;Samples;Min_cycle;Max_cycle;Signal;HPM_P1;HPM_P2
2022/11/03 00:02:14;;;;;;;17.75;4.25;;;6.20;99.90;;;;;;5062834;28;20028;-85
2022/11/03 00:04:40;;;;;;;13.82;3.67;;;6.20;99.90;;;;;;5076241;28;20032;-84
2022/11/03 00:07:05;;;;;;;14.32;3.92;;;6.20;99.90;;;;;;5065560;28;20035;-85
2022/11/03 00:09:31;;;;;;;18.83;4.10;;;6.10;99.90;;;;;;5068109;28;20122;-85
2022/11/03 00:12:28;;;;;;;15.95;4.57;;;6.20;99.90;;;;;;5052674;28;20109;-85
2022/11/03 00:14:53;;;;;;;22.38;4.82;;;6.10;99.90;;;;;;5086543;28;20119;-85
2022/11/03 00:17:19;;;;;;;21.63;4.25;;;6.10;99.90;;;;;;5072649;28;20119;-85
2022/11/03 00:19:45;;;;;;;13.05;4.18;;;6.00;99.90;;;;;;5071612;28;20048;-85
2022/11/03 00:22:12;;;;;;;26.40;5.40;;;6.00;99.90;;;;;;5062991;28;20617;-85
2022/11/03 00:24:37;;;;;;;21.77;4.28;;;6.00;99.90;;;;;;5074563;28;20116;-85
2022/11/03 00:27:03;;;;;;;29.85;5.25;;;6.00;99.90;;;;;;5071246;28;20020;-85
2022/11/03 00:29:29;;;;;;;12.77;4.80;;;6.00;99.90;;;;;;5062642;28;20862;-85
2022/11/03 00:31:54;;;;;;;23.75;4.63;;;6.00;99.90;;;;;;5089739;28;20111;-85
2022/11/03 00:34:20;;;;;;;13.10;4.95;;;6.00;99.90;;;;;;5058474;28;20033;-85
2022/11/03 00:36:46;;;;;;;20.08;4.88;;;6.00;99.90;;;;;;5075606;28;20041;-86
2022/11/03 00:39:12;;;;;;;15.68;5.00;;;6.10;99.90;;;;;;5082820;28;20384;-85
2022/11/03 00:41:38;;;;;;;13.30;4.57;;;6.10;99.90;;;;;;5074248;28;20024;-85
2022/11/03 00:44:04;;;;;;;17.75;5.57;;;6.20;99.90;;;;;;5070639;28;20756;-85
2022/11/03 00:46:33;;;;;;;17.60;5.03;;;6.20;99.90;;;;;;5073303;28;20128;-85
2022/11/03 00:48:59;;;;;;;19.75;5.45;;;6.30;99.90;;;;;;5073922;28;20028;-85
2022/11/03 00:51:28;;;;;;;17.90;4.68;;;6.30;99.90;;;;;;5069846;28;20037;-85
2022/11/03 00:53:59;;;;;;;21.15;5.55;;;6.30;99.90;;;;;;5078388;28;20032;-85
2022/11/03 00:56:30;;;;;;;28.35;8.60;;;6.30;99.90;;;;;;5062574;28;20041;-85
2022/11/03 00:59:00;;;;;;;31.55;7.20;;;6.40;99.90;;;;;;5074587;28;20101;-85
2022/11/03 01:01:32;;;;;;;19.60;5.45;;;6.40;99.90;;;;;;5056462;28;20028;-85
2022/11/03 01:06:50;;;;;;;21.77;5.63;;;6.40;99.90;;;;;;5077246;28;20316;-85
2022/11/03 01:09:50;;;;;;;17.55;6.25;;;6.40;99.90;;;;;;5076881;28;20031;-84
2022/11/03 01:12:17;;;;;;;24.33;6.65;;;6.40;99.90;;;;;;5073141;28;20495;-85
2022/11/03 01:14:44;;;;;;;20.08;6.47;;;6.40;99.90;;;;;;5077931;28;20471;-85
2022/11/03 01:17:13;;;;;;;21.38;6.38;;;6.40;99.90;;;;;;5065969;28;20427;-85
2022/11/03 01:19:39;;;;;;;15.90;6.38;;;6.40;99.90;;;;;;5077734;28;20047;-85
2022/11/03 01:22:05;;;;;;;20.90;6.22;;;6.30;99.90;;;;;;5075287;28;20110;-85
2022/11/03 01:24:30;;;;;;;21.40;5.35;;;6.30;99.90;;;;;;5081267;28;20067;-86
2022/11/03 01:26:56;;;;;;;19.30;5.93;;;6.20;99.90;;;;;;5058807;28;20060;-85
2022/11/03 01:29:22;;;;;;;26.65;6.03;;;6.20;99.90;;;;;;5064440;28;20019;-84
2022/11/03 01:31:48;;;;;;;18.08;5.80;;;6.30;99.90;;;;;;5060559;28;20480;-84
2022/11/03 01:34:16;;;;;;;27.65;6.38;;;6.40;99.90;;;;;;5081847;28;20197;-85
2022/11/03 01:40:07;;;;;;;22.17;6.03;;;6.40;99.90;;;;;;5067468;28;20472;-85
2022/11/03 01:42:33;;;;;;;26.15;7.10;;;6.40;99.90;;;;;;5065595;28;20025;-85
2022/11/03 01:44:59;;;;;;;22.27;7.15;;;6.30;99.90;;;;;;5070701;28;20510;-85
2022/11/03 01:47:31;;;;;;;16.63;6.50;;;6.30;99.90;;;;;;5073186;28;20099;-85
2022/11/03 01:50:00;;;;;;;26.88;7.25;;;6.30;99.90;;;;;;5056499;28;20031;-85
2022/11/03 01:52:43;;;;;;;17.83;7.20;;;6.10;99.90;;;;;;5057884;28;20048;-85
2022/11/03 01:55:17;;;;;;;19.92;6.38;;;6.00;99.90;;;;;;5056127;28;20735;-85
2022/11/03 01:57:52;;;;;;;26.55;7.07;;;5.90;99.90;;;;;;5056587;28;20492;-85
2022/11/03 02:00:18;;;;;;;28.00;8.00;;;5.80;99.90;;;;;;5059881;28;20077;-85
2022/11/03 02:06:31;;;;;;;23.38;8.40;;;5.90;99.90;;;;;;5073051;28;20497;-85
2022/11/03 02:09:03;;;;;;;22.45;6.60;;;6.00;99.90;;;;;;5057598;28;20028;-85
2022/11/03 02:14:15;;;;;;;30.35;6.82;;;5.70;99.90;;;;;;5070408;28;20089;-85
2022/11/03 02:16:45;;;;;;;23.75;7.10;;;5.60;99.90;;;;;;5051460;28;20036;-85
2022/11/03 02:19:37;;;;;;;30.77;9.10;;;5.60;99.90;;;;;;5067467;28;20051;-85
2022/11/03 02:22:33;;;;;;;30.67;11.68;;;5.80;99.90;;;;;;5065470;28;20051;-85
2022/11/03 02:25:11;;;;;;;45.80;15.13;;;6.00;99.90;;;;;;5048923;28;20040;-85
2022/11/03 02:27:37;;;;;;;116.18;33.50;;;6.10;99.90;;;;;;5068971;28;20040;-83
2022/11/03 02:30:03;;;;;;;117.50;35.97;;;6.00;99.90;;;;;;5049985;28;20035;-83
2022/11/03 02:32:35;;;;;;;57.45;16.88;;;6.00;99.90;;;;;;5058169;28;20043;-82
2022/11/03 02:35:11;;;;;;;57.40;16.95;;;5.90;99.90;;;;;;5063858;28;20082;-82
2022/11/03 02:37:42;;;;;;;27.63;11.73;;;5.80;99.90;;;;;;5057086;28;20032;-83
2022/11/03 02:40:17;;;;;;;40.10;15.45;;;5.70;99.90;;;;;;5072993;28;20472;-82
2022/11/03 02:42:47;;;;;;;36.33;10.50;;;5.50;99.90;;;;;;5061899;28;20474;-83
2022/11/03 02:45:17;;;;;;;22.58;8.07;;;5.30;99.90;;;;;;5050651;28;20029;-82
2022/11/03 02:47:44;;;;;;;37.75;8.95;;;5.20;99.90;;;;;;5057447;28;20033;-82
2022/11/03 02:50:34;;;;;;;22.10;7.90;;;5.10;99.90;;;;;;5068319;28;20477;-82
2022/11/03 02:53:01;;;;;;;24.30;7.85;;;5.00;99.90;;;;;;5073650;28;20630;-83
2022/11/03 02:55:50;;;;;;;16.20;7.28;;;4.90;99.90;;;;;;5080273;28;20447;-82
2022/11/03 02:58:36;;;;;;;17.90;7.07;;;4.80;99.90;;;;;;5075997;28;20032;-82
2022/11/03 03:01:17;;;;;;;23.65;7.65;;;4.70;99.90;;;;;;5066690;28;20032;-85
2022/11/03 03:03:56;;;;;;;26.40;8.13;;;4.50;99.90;;;;;;5071834;28;20383;-85
2022/11/03 03:06:27;;;;;;;25.92;9.05;;;4.50;99.90;;;;;;5076214;28;20052;-85
2022/11/03 03:08:59;;;;;;;25.27;8.30;;;4.40;99.90;;;;;;5076838;28;20387;-85
2022/11/03 03:11:43;;;;;;;53.47;14.60;;;4.40;99.90;;;;;;5079593;28;20036;-85
2022/11/03 03:14:16;;;;;;;35.67;10.68;;;4.40;99.90;;;;;;5082856;28;20509;-85
2022/11/03 03:16:51;;;;;;;27.17;9.77;;;4.40;99.90;;;;;;5042837;28;20039;-84
2022/11/03 03:19:25;;;;;;;27.02;8.65;;;4.60;99.90;;;;;;5074036;28;20036;-84
2022/11/03 03:21:55;;;;;;;27.48;9.52;;;4.70;99.90;;;;;;5066508;28;20066;-85
2022/11/03 03:24:30;;;;;;;37.80;9.60;;;4.80;99.90;;;;;;5063521;28;20035;-85
2022/11/03 03:26:59;;;;;;;23.55;9.20;;;4.80;99.90;;;;;;5057476;28;20699;-85
2022/11/03 03:29:30;;;;;;;30.80;10.02;;;4.80;99.90;;;;;;5080997;28;20089;-85
2022/11/03 03:32:36;;;;;;;34.00;10.52;;;4.70;99.90;;;;;;5059190;28;20039;-85
2022/11/03 03:35:06;;;;;;;27.33;8.10;;;4.60;99.90;;;;;;5056397;28;20040;-85
2022/11/03 03:37:36;;;;;;;33.38;10.48;;;4.50;99.90;;;;;;5060230;28;20060;-85
2022/11/03 03:40:06;;;;;;;34.35;8.65;;;4.40;99.90;;;;;;5058947;28;20040;-85
2022/11/03 03:42:35;;;;;;;27.88;9.18;;;4.30;99.90;;;;;;5058468;28;20063;-85
2022/11/03 03:45:02;;;;;;;25.00;10.02;;;4.20;99.90;;;;;;5059682;28;20123;-85
2022/11/03 03:48:21;;;;;;;41.72;10.52;;;4.20;99.90;;;;;;5079119;28;20039;-85
2022/11/03 03:50:52;;;;;;;23.10;10.20;;;4.20;99.90;;;;;;5065328;28;20032;-85
2022/11/03 03:53:18;;;;;;;33.58;9.65;;;4.40;99.90;;;;;;5063841;28;20024;-84
2022/11/03 03:56:04;;;;;;;29.73;10.90;;;4.50;99.90;;;;;;5074986;28;20055;-85
2022/11/03 03:58:30;;;;;;;38.05;11.48;;;4.70;99.90;;;;;;5100242;28;20032;-84
2022/11/03 04:00:56;;;;;;;26.02;11.00;;;4.70;99.90;;;;;;5077629;28;20111;-85
2022/11/03 04:03:23;;;;;;;37.75;13.52;;;4.80;99.90;;;;;;5118634;27;20429;-84
2022/11/03 04:06:26;;;;;;;29.52;11.93;;;4.80;99.90;;;;;;5064329;28;20474;-85
2022/11/03 04:08:52;;;;;;;41.10;13.23;;;4.90;99.90;;;;;;5108051;28;20075;-85
2022/11/03 04:22:15;;;;;;;45.63;16.77;;;5.30;99.90;;;;;;5081370;28;20035;-85
2022/11/03 04:24:45;;;;;;;57.72;19.20;;;5.40;99.90;;;;;;5065213;28;20119;-85
2022/11/03 04:27:29;;;;;;;41.10;16.65;;;5.40;99.90;;;;;;5082310;28;20035;-85
2022/11/03 04:30:01;;;;;;;46.10;17.75;;;5.50;99.90;;;;;;5080256;28;20024;-85
2022/11/03 04:32:27;;;;;;;;;;;5.70;99.90;;;;;;5072614;28;20033;-85
2022/11/03 04:34:53;;;;;;;45.03;15.48;;;5.80;99.90;;;;;;5087542;28;19908;-84
2022/11/03 04:37:19;;;;;;;43.35;15.85;;;5.80;99.90;;;;;;5073793;28;20032;-85
2022/11/03 04:39:45;;;;;;;57.45;20.00;;;5.90;99.90;;;;;;5104646;28;20444;-84
2022/11/03 04:42:21;;;;;;;42.05;18.50;;;5.90;99.90;;;;;;5076499;28;20033;-85
2022/11/03 04:44:47;;;;;;;52.80;18.65;;;5.80;99.90;;;;;;5089471;28;20039;-85
2022/11/03 04:47:15;;;;;;;65.47;26.42;;;5.90;99.90;;;;;;5060829;28;20112;-84
2022/11/03 04:49:45;;;;;;;85.57;32.60;;;5.90;99.90;;;;;;5108514;27;20476;-85
2022/11/03 04:52:21;;;;;;;164.02;56.72;;;5.90;99.90;;;;;;5064917;28;20079;-85
2022/11/03 04:54:50;;;;;;;119.32;42.80;;;5.90;99.90;;;;;;5093340;28;20400;-85
2022/11/03 04:57:17;;;;;;;123.28;46.30;;;5.90;99.90;;;;;;5083584;28;20028;-85
2022/11/03 04:59:45;;;;;;;66.13;20.77;;;5.90;99.90;;;;;;5075394;28;20056;-85
2022/11/03 05:06:05;;;;;;;45.70;17.50;;;5.90;99.90;;;;;;5072908;28;20099;-85
2022/11/03 05:09:08;;;;;;;40.00;15.70;;;5.80;99.90;;;;;;5071675;28;20476;-85
2022/11/03 05:11:38;;;;;;;50.40;14.88;;;5.70;99.90;;;;;;5051933;28;20090;-85
2022/11/03 05:14:13;;;;;;;40.33;15.57;;;5.60;99.90;;;;;;5057146;28;20039;-85
2022/11/03 05:16:39;;;;;;;43.25;16.92;;;5.50;99.90;;;;;;5057141;28;20029;-84
2022/11/03 05:19:13;;;;;;;75.50;35.00;;;5.40;99.90;;;;;;5081153;28;20407;-85
2022/11/03 05:21:39;;;;;;;67.40;32.60;;;5.40;99.90;;;;;;5076189;28;20082;-85
2022/11/03 05:24:24;;;;;;;86.38;37.72;;;5.30;99.90;;;;;;5081822;28;20066;-85
2022/11/03 05:26:51;;;;;;;68.97;31.17;;;5.40;99.90;;;;;;5061645;28;20025;-85
2022/11/03 05:29:35;;;;;;;66.10;30.27;;;5.30;99.90;;;;;;5065483;28;20020;-85
2022/11/03 05:32:01;;;;;;;55.83;23.20;;;5.30;99.90;;;;;;5070651;28;20361;-84
2022/11/03 05:34:30;;;;;;;45.08;18.65;;;5.30;99.90;;;;;;5099199;28;20111;-85
2022/11/03 05:37:18;;;;;;;57.38;23.40;;;5.30;99.90;;;;;;5075315;28;20090;-85
2022/11/03 05:39:46;;;;;;;50.67;20.15;;;5.30;99.90;;;;;;5086028;28;20055;-85
2022/11/03 05:42:29;;;;;;;54.40;19.77;;;5.40;99.90;;;;;;5061965;28;20027;-85
2022/11/03 05:44:55;;;;;;;59.20;20.38;;;5.60;99.90;;;;;;5072764;28;20581;-84
2022/11/03 05:47:24;;;;;;;51.63;17.75;;;5.50;99.90;;;;;;5057593;28;20021;-85
2022/11/03 05:49:59;;;;;;;54.47;18.58;;;5.60;99.90;;;;;;5091785;28;20668;-84
2022/11/03 05:52:26;;;;;;;45.50;18.45;;;5.60;99.90;;;;;;5077780;28;20052;-84
2022/11/03 05:54:58;;;;;;;50.85;18.05;;;5.60;99.90;;;;;;5093881;28;20023;-85
2022/11/03 05:57:27;;;;;;;52.80;17.95;;;5.70;99.90;;;;;;5064015;28;20752;-85
2022/11/03 05:59:53;;;;;;;57.55;17.63;;;5.70;99.90;;;;;;5077448;28;20036;-85
2022/11/03 06:02:38;;;;;;;48.45;17.02;;;5.60;99.90;;;;;;5084283;28;20025;-85
2022/11/03 06:05:20;;;;;;;54.72;18.60;;;5.60;99.90;;;;;;5045838;28;20037;-85
2022/11/03 06:07:47;;;;;;;56.58;17.42;;;5.60;99.90;;;;;;5082647;28;20037;-85
2022/11/03 06:10:22;;;;;;;49.40;18.92;;;5.60;99.90;;;;;;5059681;28;20024;-84
2022/11/03 06:13:35;;;;;;;52.25;19.00;;;5.70;99.90;;;;;;5079311;28;20043;-84
2022/11/03 06:16:04;;;;;;;54.88;18.75;;;5.80;99.90;;;;;;5040535;28;20024;-88
2022/11/03 06:18:36;;;;;;;42.92;16.95;;;5.80;99.90;;;;;;5042348;28;20037;-88
2022/11/03 06:21:07;;;;;;;54.63;18.65;;;5.70;99.90;;;;;;5052777;28;20434;-87
2022/11/03 06:23:36;;;;;;;51.85;19.70;;;5.70;99.90;;;;;;5061975;28;20411;-88
2022/11/03 06:26:03;;;;;;;61.08;19.77;;;5.70;99.90;;;;;;5078591;28;20459;-87
2022/11/03 06:28:35;;;;;;;46.20;17.58;;;5.70;99.90;;;;;;5064658;28;20016;-88
2022/11/03 06:31:03;;;;;;;65.65;17.58;;;5.60;99.90;;;;;;5067044;28;20032;-88
2022/11/03 06:33:33;;;;;;;47.45;15.20;;;5.60;99.90;;;;;;5056821;28;20032;-88
2022/11/03 06:36:13;;;;;;;41.78;16.70;;;5.50;99.90;;;;;;5059348;28;20490;-88
2022/11/03 06:38:39;;;;;;;45.50;17.17;;;5.50;99.90;;;;;;5058490;28;20039;-88
2022/11/03 06:41:17;;;;;;;38.33;16.00;;;5.50;99.90;;;;;;5054970;28;20392;-88
2022/11/03 06:43:44;;;;;;;40.40;16.48;;;5.60;99.90;;;;;;5063410;28;20024;-88
2022/11/03 06:46:29;;;;;;;43.40;15.45;;;5.80;99.90;;;;;;5059853;28;20028;-88
2022/11/03 06:48:59;;;;;;;43.40;15.88;;;5.80;99.90;;;;;;5064379;28;20506;-87
2022/11/03 06:51:29;;;;;;;44.10;16.63;;;5.90;99.90;;;;;;5081885;28;20189;-88
2022/11/03 06:54:00;;;;;;;50.70;18.27;;;5.90;99.90;;;;;;5075029;28;20032;-87
2022/11/03 06:56:30;;;;;;;45.33;17.70;;;6.10;99.90;;;;;;5103594;28;20499;-88
2022/11/03 06:58:56;;;;;;;55.55;17.92;;;6.20;99.90;;;;;;5076330;28;20024;-87
2022/11/03 07:01:25;;;;;;;41.92;17.50;;;6.40;99.90;;;;;;5057829;28;20020;-87
2022/11/03 07:04:13;;;;;;;50.00;17.48;;;6.40;99.90;;;;;;5089378;28;20029;-88
2022/11/03 07:06:40;;;;;;;47.38;16.45;;;6.50;99.90;;;;;;5052043;28;20033;-87
2022/11/03 07:09:14;;;;;;;48.63;17.70;;;6.60;99.90;;;;;;5059069;28;20035;-88
2022/11/03 07:11:44;;;;;;;49.63;17.25;;;6.70;99.90;;;;;;5075226;28;20025;-87
2022/11/03 07:14:23;;;;;;;41.17;16.58;;;6.80;99.90;;;;;;5079526;28;20065;-87
2022/11/03 07:16:55;;;;;;;49.47;16.83;;;6.90;99.90;;;;;;5055914;28;20044;-87
2022/11/03 07:19:25;;;;;;;34.75;14.43;;;7.00;99.90;;;;;;5056308;28;20483;-87
2022/11/03 07:21:55;;;;;;;46.67;16.05;;;7.10;99.90;;;;;;5064871;28;20090;-88
2022/11/03 07:24:22;;;;;;;45.83;14.77;;;7.10;99.90;;;;;;5075847;28;20044;-88
2022/11/03 07:26:57;;;;;;;39.83;14.23;;;7.20;99.90;;;;;;5077171;28;20029;-88
2022/11/03 07:29:27;;;;;;;35.33;13.48;;;7.30;99.90;;;;;;5075482;28;20020;-87
2022/11/03 07:31:53;;;;;;;28.63;13.48;;;7.40;99.90;;;;;;5052719;28;20028;-88
2022/11/03 07:34:23;;;;;;;40.13;15.35;;;7.60;99.90;;;;;;5066374;28;20025;-87
2022/11/03 07:36:51;;;;;;;33.28;11.32;;;7.70;99.90;;;;;;5049668;28;20029;-87
2022/11/03 07:39:19;;;;;;;29.10;11.07;;;7.90;99.90;;;;;;5078784;28;20036;-87
2022/11/03 07:41:46;;;;;;;28.75;9.20;;;7.90;99.90;;;;;;5078472;28;20039;-88
2022/11/03 07:44:21;;;;;;;23.67;10.02;;;7.90;99.90;;;;;;5061810;28;20494;-88
2022/11/03 07:46:49;;;;;;;17.42;7.70;;;7.90;99.90;;;;;;5051622;28;20025;-88
2022/11/03 07:49:27;;;;;;;17.45;7.88;;;7.90;99.90;;;;;;5068443;28;20036;-88
2022/11/03 07:51:58;;;;;;;18.80;7.38;;;8.00;99.90;;;;;;5059398;28;20835;-87
2022/11/03 07:54:33;;;;;;;19.17;7.22;;;8.00;99.90;;;;;;5064887;28;20035;-88
2022/11/03 07:57:10;;;;;;;17.27;6.90;;;8.00;99.90;;;;;;5052068;28;20087;-86
2022/11/03 07:59:40;;;;;;;18.02;6.68;;;8.10;99.90;;;;;;5072746;28;20464;-87
2022/11/03 08:02:25;;;;;;;26.33;6.90;;;8.10;99.90;;;;;;5072780;28;20056;-87
2022/11/03 08:04:51;;;;;;;18.05;6.60;;;8.20;99.90;;;;;;5077459;28;20119;-87
2022/11/03 08:07:16;;;;;;;17.58;6.70;;;8.20;99.90;;;;;;5056007;28;20024;-87
2022/11/03 08:09:42;;;;;;;14.80;6.60;;;8.30;99.90;;;;;;5059779;28;20028;-86
2022/11/03 08:12:08;;;;;;;16.58;6.18;;;8.30;99.90;;;;;;5070998;28;20075;-87
2022/11/03 08:14:34;;;;;;;18.52;6.53;;;8.30;99.90;;;;;;5068371;28;20036;-86
2022/11/03 08:16:59;;;;;;;16.60;6.45;;;8.40;99.90;;;;;;5050500;28;20709;-86
2022/11/03 08:19:25;;;;;;;15.77;5.88;;;8.50;99.90;;;;;;5055904;28;20029;-87
2022/11/03 08:21:54;;;;;;;22.33;6.20;;;8.60;99.90;;;;;;5049505;28;20044;-87
2022/11/03 08:24:19;;;;;;;13.85;5.22;;;8.70;99.90;;;;;;5058621;28;20085;-87
2022/11/03 08:26:45;;;;;;;11.80;5.78;;;8.80;99.90;;;;;;5072808;28;20032;-86
2022/11/03 08:29:11;;;;;;;19.05;7.05;;;8.90;99.90;;;;;;5065894;28;20372;-88
2022/11/03 08:31:37;;;;;;;12.10;6.00;;;9.00;99.90;;;;;;5070717;28;20120;-87
2022/11/03 08:34:02;;;;;;;16.88;5.20;;;9.10;99.90;;;;;;5058124;28;20081;-87
2022/11/03 08:36:28;;;;;;;13.77;4.90;;;9.10;99.90;;;;;;5054684;28;20434;-88
2022/11/03 08:38:54;;;;;;;9.75;4.03;;;9.10;99.90;;;;;;5077484;28;20467;-87
2022/11/03 08:41:19;;;;;;;9.20;3.83;;;9.10;99.90;;;;;;5059471;28;20460;-87
2022/11/03 08:43:51;;;;;;;18.00;5.20;;;9.20;99.90;;;;;;5077304;28;20098;-87
2022/11/03 08:46:17;;;;;;;10.68;5.00;;;9.20;99.90;;;;;;5063878;28;20028;-87
2022/11/03 08:48:43;;;;;;;18.40;4.60;;;9.20;99.90;;;;;;5082981;28;20024;-87
2022/11/03 08:51:12;;;;;;;12.85;4.22;;;9.20;99.90;;;;;;5081009;28;20051;-88
2022/11/03 08:53:38;;;;;;;13.13;5.20;;;9.20;99.90;;;;;;5069945;28;20037;-88
2022/11/03 08:56:04;;;;;;;15.18;4.57;;;9.20;99.90;;;;;;5063139;28;20032;-88
2022/11/03 08:58:30;;;;;;;10.15;4.47;;;9.20;99.90;;;;;;5072479;28;20547;-88
2022/11/03 09:00:56;;;;;;;17.00;4.63;;;9.20;99.90;;;;;;5082444;28;20107;-86
2022/11/03 09:03:22;;;;;;;16.52;5.18;;;9.20;99.90;;;;;;5063832;28;20463;-87
2022/11/03 09:05:48;;;;;;;14.82;4.70;;;9.20;99.90;;;;;;5070626;28;20082;-86
2022/11/03 09:08:13;;;;;;;10.23;4.65;;;9.20;99.90;;;;;;5064149;28;20383;-86
2022/11/03 09:10:39;;;;;;;18.65;4.10;;;9.20;99.90;;;;;;5061014;28;20035;-87
2022/11/03 09:13:05;;;;;;;13.43;4.80;;;9.30;99.90;;;;;;5079154;28;20036;-88
2022/11/03 09:15:31;;;;;;;12.38;5.03;;;9.30;99.90;;;;;;5071262;28;20029;-86
2022/11/03 09:17:56;;;;;;;8.38;4.03;;;9.40;99.90;;;;;;5060193;28;20021;-88
2022/11/03 09:20:25;;;;;;;15.10;4.47;;;9.40;99.90;;;;;;5073646;28;20025;-88
2022/11/03 09:22:51;;;;;;;12.35;4.10;;;9.50;99.90;;;;;;5087853;28;20074;-88
2022/11/03 09:25:17;;;;;;;13.45;4.40;;;9.50;99.90;;;;;;5058212;28;20502;-88
2022/11/03 09:27:43;;;;;;;14.25;4.25;;;9.50;99.90;;;;;;5088409;28;20038;-88
2022/11/03 09:30:09;;;;;;;12.18;4.38;;;9.60;99.90;;;;;;5078351;28;20426;-88
2022/11/03 09:32:35;;;;;;;12.55;4.82;;;9.90;99.90;;;;;;5072110;28;20044;-88
2022/11/03 09:35:29;;;;;;;14.30;5.05;;;10.20;99.90;;;;;;5068071;28;20360;-88
2022/11/03 09:37:55;;;;;;;17.45;5.32;;;10.30;99.90;;;;;;5077916;28;20036;-88
2022/11/03 09:40:21;;;;;;;12.23;4.05;;;10.40;99.90;;;;;;5081446;28;20032;-88
2022/11/03 09:42:46;;;;;;;12.60;4.18;;;10.60;99.90;;;;;;5076181;28;20138;-88
2022/11/03 09:45:12;;;;;;;16.95;4.45;;;10.70;99.90;;;;;;5069984;28;20028;-87
2022/11/03 09:47:45;;;;;;;16.05;5.00;;;10.70;99.90;;;;;;5075167;28;20025;-88
2022/11/03 09:50:18;;;;;;;10.05;3.78;;;10.60;99.90;;;;;;5076949;28;20108;-88
2022/11/03 09:52:43;;;;;;;9.88;4.25;;;10.70;99.90;;;;;;5060506;28;20041;-89
2022/11/03 09:55:20;;;;;;;10.40;4.97;;;10.80;99.90;;;;;;5061211;28;20028;-89
2022/11/03 09:57:51;;;;;;;10.50;4.65;;;10.70;99.90;;;;;;5061996;28;20043;-88
2022/11/03 10:00:51;;;;;;;10.35;4.30;;;10.60;99.90;;;;;;5061997;28;20032;-88
2022/11/03 10:03:17;;;;;;;9.10;4.00;;;10.50;99.90;;;;;;5082133;28;20077;-89
2022/11/03 10:05:44;;;;;;;15.30;4.75;;;10.50;99.90;;;;;;5060584;28;20047;-88
2022/11/03 10:08:24;;;;;;;11.30;4.13;;;10.60;99.90;;;;;;5076795;28;20806;-88
2022/11/03 10:10:50;;;;;;;16.00;8.00;;;10.60;99.90;;;;;;5060751;28;20569;-88
2022/11/03 10:13:47;;;;;;;12.60;5.18;;;10.70;99.90;;;;;;5074805;28;20033;-89
2022/11/03 10:16:23;;;;;;;13.38;4.88;;;10.60;99.90;;;;;;5057368;28;20040;-88
2022/11/03 10:18:50;;;;;;;13.98;5.97;;;10.50;99.90;;;;;;5077751;28;20033;-88
2022/11/03 10:21:17;;;;;;;14.00;4.90;;;10.40;99.90;;;;;;5060540;28;20070;-88
2022/11/03 10:23:43;;;;;;;12.93;5.50;;;10.30;99.90;;;;;;5060822;28;20384;-88
2022/11/03 10:26:18;;;;;;;14.18;7.38;;;10.30;99.90;;;;;;5042902;28;84846;-88
2022/11/03 10:29:00;;;;;;;19.60;7.40;;;10.40;99.90;;;;;;5064539;28;22950;-88
2022/11/03 10:32:09;;;;;;;18.23;7.38;;;10.50;99.90;;;;;;5074508;28;20067;-88
2022/11/03 10:34:38;;;;;;;13.52;5.28;;;10.80;99.90;;;;;;5062966;28;20087;-88
2022/11/03 10:37:25;;;;;;;14.10;5.03;;;10.80;99.90;;;;;;5069057;28;20032;-88
2022/11/03 10:39:57;;;;;;;15.70;5.35;;;10.70;99.90;;;;;;5064858;28;20036;-88
2022/11/03 10:42:24;;;;;;;10.82;5.85;;;10.70;99.90;;;;;;5084762;28;20036;-88
2022/11/03 10:44:52;;;;;;;15.13;5.47;;;10.80;99.90;;;;;;5067405;28;20039;-88
2022/11/03 10:47:28;;;;;;;10.63;4.85;;;10.80;99.90;;;;;;5039095;28;20024;-88
2022/11/03 10:49:54;;;;;;;13.65;5.95;;;10.90;99.90;;;;;;5053165;28;20119;-88
2022/11/03 10:52:23;;;;;;;12.48;5.55;;;10.90;99.90;;;;;;5060817;28;20468;-88
2022/11/03 10:54:50;;;;;;;21.92;5.32;;;11.00;99.90;;;;;;5029900;28;20029;-88
2022/11/03 10:57:17;;;;;;;14.10;6.07;;;10.90;99.90;;;;;;5080569;28;20120;-88
2022/11/03 10:59:44;;;;;;;13.73;6.25;;;10.90;99.90;;;;;;5076517;28;20075;-87
2022/11/03 11:02:17;;;;;;;17.63;6.05;;;10.90;99.90;;;;;;5046474;28;20029;-88
2022/11/03 11:04:43;;;;;;;16.58;6.47;;;11.00;99.90;;;;;;5067614;28;20503;-88
2022/11/03 11:07:25;;;;;;;14.32;5.10;;;11.00;99.90;;;;;;5048599;28;20021;-88
2022/11/03 11:09:52;;;;;;;10.43;5.80;;;10.80;99.90;;;;;;5081049;28;20558;-88
2022/11/03 11:12:22;;;;;;;13.23;5.28;;;10.80;99.90;;;;;;5026765;28;20025;-89
2022/11/03 11:14:59;;;;;;;12.25;5.15;;;11.00;99.90;;;;;;5077465;28;20368;-87
2022/11/03 11:17:44;;;;;;;14.45;6.30;;;11.30;99.90;;;;;;5028038;28;20037;-87
2022/11/03 11:20:22;;;;;;;11.88;5.90;;;11.40;99.90;;;;;;5065481;28;20136;-88
2022/11/03 11:22:49;;;;;;;13.63;5.55;;;11.30;99.90;;;;;;5050572;28;20392;-87
2022/11/03 11:26:10;;;;;;;11.23;5.05;;;11.20;99.90;;;;;;5070671;28;20360;-88
2022/11/03 11:28:40;;;;;;;11.70;5.15;;;11.20;99.90;;;;;;5058710;28;20024;-88
2022/11/03 11:31:21;;;;;;;15.32;5.03;;;11.20;99.90;;;;;;5076216;28;20071;-88
2022/11/03 11:33:48;;;;;;;12.40;5.53;;;11.10;99.90;;;;;;5070337;28;20032;-88
2022/11/03 11:36:22;;;;;;;11.88;5.57;;;11.10;99.90;;;;;;5055410;28;20024;-88
2022/11/03 11:38:48;;;;;;;15.38;6.65;;;11.00;99.90;;;;;;5071843;28;20499;-86
2022/11/03 11:41:13;;;;;;;13.77;5.35;;;11.00;99.90;;;;;;5073204;28;20067;-86
2022/11/03 11:43:39;;;;;;;15.80;5.65;;;11.00;99.90;;;;;;5067953;28;20028;-85
2022/11/03 11:46:38;;;;;;;10.13;5.43;;;11.00;99.90;;;;;;5021293;28;20553;-85
2022/11/03 11:49:29;;;;;;;12.68;6.00;;;11.10;99.90;;;;;;5026165;28;20125;-88
2022/11/03 11:52:00;;;;;;;11.40;5.40;;;11.20;99.90;;;;;;5049488;28;20037;-88
2022/11/03 11:54:26;;;;;;;12.82;6.28;;;11.30;99.90;;;;;;5066923;28;20035;-89
2022/11/03 11:56:52;;;;;;;12.70;5.30;;;11.20;99.90;;;;;;5050340;28;20820;-88
2022/11/03 11:59:22;;;;;;;17.08;6.63;;;11.10;99.90;;;;;;5066471;28;20064;-88
2022/11/03 12:01:50;;;;;;;15.57;5.95;;;11.00;99.90;;;;;;5032690;28;20128;-88
2022/11/03 12:04:19;;;;;;;15.13;5.55;;;10.90;99.90;;;;;;5082102;28;20028;-87
2022/11/03 12:06:45;;;;;;;12.77;6.22;;;10.90;99.90;;;;;;5031934;28;20040;-88
2022/11/03 12:09:19;;;;;;;13.88;6.35;;;10.80;99.90;;;;;;5064654;28;20017;-86
2022/11/03 12:12:25;;;;;;;16.80;6.93;;;10.80;99.90;;;;;;5033624;28;20086;-87
2022/11/03 12:14:51;;;;;;;16.40;6.45;;;10.80;99.90;;;;;;5063520;28;20087;-87
2022/11/03 12:17:17;;;;;;;13.02;6.38;;;10.80;99.90;;;;;;5031188;28;20551;-87
2022/11/03 12:19:51;;;;;;;15.35;6.47;;;10.80;99.90;;;;;;5068919;28;20028;-87
2022/11/03 12:22:23;;;;;;;15.77;6.63;;;10.80;99.90;;;;;;5071153;28;20021;-87
2022/11/03 12:24:52;;;;;;;11.75;6.70;;;10.70;99.90;;;;;;5062993;28;20418;-87
2022/11/03 12:27:24;;;;;;;19.75;6.68;;;10.60;99.90;;;;;;5087523;28;20487;-88
2022/11/03 12:29:56;;;;;;;18.83;7.10;;;10.60;99.90;;;;;;5052072;28;20485;-87
2022/11/03 12:32:21;;;;;;;;;;;10.60;99.90;;;;;;5049256;28;20117;-88
2022/11/03 12:35:24;;;;;;;24.52;7.25;;;10.60;99.90;;;;;;5052723;28;19955;-88
2022/11/03 12:37:50;;;;;;;19.88;6.35;;;10.60;99.90;;;;;;5032416;28;20037;-88
2022/11/03 12:40:16;;;;;;;17.85;7.38;;;10.50;99.90;;;;;;5036993;28;20033;-87
2022/11/03 12:42:42;;;;;;;18.23;6.80;;;10.40;99.90;;;;;;5034559;28;20480;-89
2022/11/03 12:45:08;;;;;;;11.15;6.70;;;10.40;99.90;;;;;;5078653;28;20025;-87
2022/11/03 12:47:33;;;;;;;19.48;8.18;;;10.40;99.90;;;;;;5050895;28;20036;-88
2022/11/03 12:49:59;;;;;;;24.50;6.45;;;10.40;99.90;;;;;;5083695;28;20472;-88
2022/11/03 12:52:25;;;;;;;21.23;7.32;;;10.40;99.90;;;;;;5044867;28;20033;-88
2022/11/03 12:54:51;;;;;;;20.75;9.57;;;10.40;99.90;;;;;;5052427;28;20123;-88
2022/11/03 12:57:16;;;;;;;21.98;10.85;;;10.40;99.90;;;;;;5081150;28;20028;-88
2022/11/03 12:59:42;;;;;;;26.88;9.48;;;10.40;99.90;;;;;;5048826;28;20644;-88
2022/11/03 13:02:09;;;;;;;15.15;8.60;;;10.40;99.90;;;;;;5037049;28;20036;-88
2022/11/03 13:04:35;;;;;;;25.25;9.15;;;10.50;99.90;;;;;;5032818;28;20028;-88
2022/11/03 13:07:01;;;;;;;17.65;7.93;;;10.50;99.90;;;;;;5079161;28;20075;-87
2022/11/03 13:09:27;;;;;;;23.98;11.05;;;10.50;99.90;;;;;;5070395;28;20026;-88
2022/11/03 13:14:36;;;;;;;18.33;8.93;;;10.40;99.90;;;;;;5081566;28;20405;-87
2022/11/03 13:17:02;;;;;;;17.90;8.50;;;10.40;99.90;;;;;;5078755;28;20103;-88
2022/11/03 13:19:28;;;;;;;15.85;7.82;;;10.40;99.90;;;;;;5082014;28;20080;-87
2022/11/03 13:21:53;;;;;;;20.35;10.10;;;10.40;99.90;;;;;;5043587;28;20024;-88
2022/11/03 13:24:37;;;;;;;20.27;8.55;;;10.40;99.90;;;;;;5035137;28;20553;-89
2022/11/03 13:27:03;;;;;;;26.45;10.00;;;10.40;99.90;;;;;;5048824;28;20033;-87
2022/11/03 13:29:29;;;;;;;40.60;16.50;;;10.40;99.90;;;;;;5052786;28;20130;-88
2022/11/03 13:35:42;;;;;;;25.92;11.35;;;10.40;99.90;;;;;;5051756;28;20044;-88
2022/11/03 13:38:08;;;;;;;50.92;22.38;;;10.40;99.90;;;;;;5055211;28;20032;-88